Time;durP1;ratioP1;P1;durP2;ratioP2;P2;SDS_P1;SDS_P2;PMS_P1;PMS_P2;Temp;Humidity;BMP_temperature;BMP_pressure;BME280_temperature;BME280_humidity;BME280_pressure;Samples;Min_cycle;Max_cycle;Signal;HPM_P1;HPM_P2
2022/12/24 00:01:56;;;;;;;3.03;0.90;;;;;;;;;;5086226;28;20159;-73
2022/12/24 00:04:26;;;;;;;3.80;1.13;;;;;;;;;;5088639;28;20044;-74
2022/12/24 00:06:56;;;;;;;3.58;0.98;;;;;;;;;;5089816;28;20510;-74
2022/12/24 00:09:26;;;;;;;3.40;1.13;;;;;;;;;;5071706;28;21130;-74
2022/12/24 00:11:56;;;;;;;6.60;1.10;;;;;;;;;;5087098;28;20048;-73
2022/12/24 00:14:28;;;;;;;8.30;1.40;;;;;;;;;;5089972;28;20083;-74
2022/12/24 00:16:58;;;;;;;5.32;1.23;;;;;;;;;;5089406;28;20518;-74
2022/12/24 00:19:28;;;;;;;3.85;1.00;;;;;;;;;;5089353;28;20044;-74
2022/12/24 00:21:58;;;;;;;7.13;1.20;;;;;;;;;;5089032;28;20158;-76
2022/12/24 00:24:28;;;;;;;4.25;1.00;;;;;;;;;;5088140;28;20059;-74
2022/12/24 00:26:59;;;;;;;6.07;1.00;;;;;;;;;;5088209;28;20048;-74
2022/12/24 00:29:30;;;;;;;3.28;0.75;;;;;;;;;;5070686;28;20056;-75
2022/12/24 00:32:00;;;;;;;6.38;1.13;;;;;;;;;;5088482;28;20056;-74
2022/12/24 00:34:31;;;;;;;5.03;0.80;;;;;;;;;;5089036;28;20059;-74
2022/12/24 00:37:01;;;;;;;5.10;0.80;;;;;;;;;;5088761;28;20036;-74
2022/12/24 00:39:33;;;;;;;4.80;0.90;;;;;;;;;;5089544;28;20052;-74
2022/12/24 00:42:02;;;;;;;2.88;0.80;;;;;;;;;;5089338;28;20044;-74
2022/12/24 00:44:33;;;;;;;5.43;1.00;;;;;;;;;;5088718;28;20051;-74
2022/12/24 00:47:03;;;;;;;4.43;0.85;;;;;;;;;;5088223;28;20044;-75
2022/12/24 00:49:40;;;;;;;5.78;1.30;;;;;;;;;;5088408;28;20048;-74
2022/12/24 00:52:10;;;;;;;2.17;0.98;;;;;;;;;;5088714;28;20056;-75
2022/12/24 00:54:41;;;;;;;4.47;1.00;;;;;;;;;;5088078;28;20052;-74
2022/12/24 00:57:10;;;;;;;3.88;1.60;;;;;;;;;;5087875;28;20055;-74
2022/12/24 00:59:40;;;;;;;6.97;0.85;;;;;;;;;;5069394;28;20055;-74
2022/12/24 01:02:11;;;;;;;4.65;0.80;;;;;;;;;;5087445;28;20052;-74
2022/12/24 01:07:31;;;;;;;2.95;0.75;;;;;;;;;;5045881;28;20052;-74
2022/12/24 01:10:01;;;;;;;4.55;0.63;;;;;;;;;;5044469;28;20064;-74
2022/12/24 01:12:32;;;;;;;4.80;0.70;;;;;;;;;;5048352;28;20510;-74
2022/12/24 01:15:02;;;;;;;3.92;0.90;;;;;;;;;;5047327;28;20068;-74
2022/12/24 01:17:35;;;;;;;3.83;1.30;;;;;;;;;;5047416;28;20053;-74
2022/12/24 01:20:07;;;;;;;2.63;1.10;;;;;;;;;;5046187;28;20060;-74
2022/12/24 01:22:37;;;;;;;5.80;0.95;;;;;;;;;;5046896;28;20049;-74
2022/12/24 01:25:08;;;;;;;1.58;0.90;;;;;;;;;;5047929;28;20052;-74
2022/12/24 01:27:40;;;;;;;7.07;1.13;;;;;;;;;;5047744;28;20045;-74
2022/12/24 01:30:14;;;;;;;6.03;0.93;;;;;;;;;;5048328;28;20049;-74
2022/12/24 01:32:44;;;;;;;6.30;0.90;;;;;;;;;;5047461;28;20056;-75
2022/12/24 01:35:15;;;;;;;2.00;0.60;;;;;;;;;;5029410;28;20503;-74
2022/12/24 01:37:46;;;;;;;5.68;1.23;;;;;;;;;;5047834;28;21141;-74
2022/12/24 01:43:23;;;;;;;4.82;1.05;;;;;;;;;;5047664;28;20052;-74
2022/12/24 01:46:23;;;;;;;4.82;1.10;;;;;;;;;;5047195;28;20057;-74
2022/12/24 01:49:02;;;;;;;1.67;0.93;;;;;;;;;;5040473;28;20057;-74
2022/12/24 01:52:00;;;;;;;5.45;1.30;;;;;;;;;;5046285;28;20128;-78
2022/12/24 01:54:42;;;;;;;3.10;1.02;;;;;;;;;;5047821;28;20529;-77
2022/12/24 01:57:33;;;;;;;5.63;0.98;;;;;;;;;;5046558;28;20052;-74
2022/12/24 02:00:12;;;;;;;5.55;1.30;;;;;;;;;;5047165;28;20072;-74
2022/12/24 02:02:47;;;;;;;3.70;1.30;;;;;;;;;;5047891;28;20049;-74
2022/12/24 02:05:23;;;;;;;2.17;0.80;;;;;;;;;;5055115;28;20048;-74
2022/12/24 02:07:55;;;;;;;3.78;0.90;;;;;;;;;;5087350;28;20039;-74
2022/12/24 02:10:27;;;;;;;2.15;1.13;;;;;;;;;;5087149;28;20501;-74
2022/12/24 02:12:59;;;;;;;1.45;0.85;;;;;;;;;;5087065;28;20044;-74
2022/12/24 02:15:38;;;;;;;4.88;0.90;;;;;;;;;;5069295;28;20434;-74
2022/12/24 02:18:29;;;;;;;3.15;0.80;;;;;;;;;;5087177;28;20078;-74
2022/12/24 02:21:42;;;;;;;2.95;0.93;;;;;;;;;;5086867;28;20048;-74
2022/12/24 02:24:51;;;;;;;3.08;0.77;;;;;;;;;;5077863;28;20064;-74
2022/12/24 02:27:26;;;;;;;2.60;0.80;;;;;;;;;;5037102;28;20052;-74
2022/12/24 02:30:09;;;;;;;;;;;;;;;;;;5087717;28;20036;-74
2022/12/24 02:32:55;;;;;;;3.22;0.88;;;;;;;;;;5086947;28;19927;-73
2022/12/24 02:35:34;;;;;;;1.30;0.60;;;;;;;;;;5086293;28;20051;-73
2022/12/24 02:38:13;;;;;;;7.18;0.88;;;;;;;;;;5087047;28;20044;-74
2022/12/24 02:41:07;;;;;;;1.25;0.52;;;;;;;;;;5087197;28;20040;-74
2022/12/24 02:43:44;;;;;;;2.33;0.98;;;;;;;;;;5086545;28;20878;-74
2022/12/24 02:46:23;;;;;;;2.60;0.70;;;;;;;;;;5085188;28;20605;-74
2022/12/24 02:48:53;;;;;;;2.72;0.63;;;;;;;;;;5086176;28;20494;-74
2022/12/24 02:51:25;;;;;;;4.25;1.00;;;;;;;;;;5086704;28;20055;-73
2022/12/24 02:53:58;;;;;;;1.30;0.55;;;;;;;;;;5086017;28;20059;-73
2022/12/24 02:56:29;;;;;;;3.83;1.02;;;;;;;;;;5086397;28;20422;-74
2022/12/24 02:59:04;;;;;;;2.45;0.80;;;;;;;;;;5085507;28;20530;-73
2022/12/24 03:01:57;;;;;;;5.70;0.95;;;;;;;;;;5068606;28;20518;-74
2022/12/24 03:04:54;;;;;;;2.55;0.68;;;;;;;;;;5068369;28;20526;-73
2022/12/24 03:07:44;;;;;;;6.30;1.08;;;;;;;;;;5086939;28;20044;-73
2022/12/24 03:10:30;;;;;;;3.45;0.98;;;;;;;;;;5086861;28;20040;-73
2022/12/24 03:13:17;;;;;;;1.70;0.68;;;;;;;;;;5086154;28;20518;-73
2022/12/24 03:15:49;;;;;;;7.03;1.33;;;;;;;;;;5086401;28;20048;-73
2022/12/24 03:18:29;;;;;;;4.22;0.70;;;;;;;;;;5069102;28;20048;-74
2022/12/24 03:21:13;;;;;;;3.53;0.60;;;;;;;;;;5086551;28;20048;-73
2022/12/24 03:23:44;;;;;;;3.95;1.20;;;;;;;;;;5086407;28;20047;-73
2022/12/24 03:26:18;;;;;;;2.30;0.75;;;;;;;;;;5067657;28;20054;-73
2022/12/24 03:28:49;;;;;;;5.25;0.65;;;;;;;;;;5086644;28;20435;-74
2022/12/24 03:31:20;;;;;;;2.00;0.98;;;;;;;;;;5086398;28;20403;-74
2022/12/24 03:33:52;;;;;;;5.93;0.90;;;;;;;;;;5085867;28;20526;-73
2022/12/24 03:36:24;;;;;;;1.55;0.82;;;;;;;;;;5086210;28;20071;-74
2022/12/24 03:38:54;;;;;;;2.78;1.02;;;;;;;;;;5089138;28;20055;-74
2022/12/24 03:41:24;;;;;;;2.13;0.60;;;;;;;;;;5089861;28;20068;-73
2022/12/24 03:43:54;;;;;;;3.97;1.10;;;;;;;;;;5090248;28;20059;-74
2022/12/24 03:46:24;;;;;;;4.05;0.90;;;;;;;;;;5090181;28;20040;-73
2022/12/24 03:48:55;;;;;;;1.45;0.75;;;;;;;;;;5089596;28;20048;-76
2022/12/24 03:51:26;;;;;;;4.10;0.63;;;;;;;;;;5090026;28;20051;-73
2022/12/24 03:53:57;;;;;;;3.60;1.00;;;;;;;;;;5089913;28;20422;-73
2022/12/24 03:56:27;;;;;;;3.63;0.90;;;;;;;;;;5089758;28;20517;-73
2022/12/24 03:58:57;;;;;;;2.58;0.75;;;;;;;;;;5089725;28;20052;-73
2022/12/24 04:01:27;;;;;;;3.97;1.00;;;;;;;;;;5089331;28;20052;-73
2022/12/24 04:03:58;;;;;;;4.03;1.00;;;;;;;;;;5090045;28;20035;-74
2022/12/24 04:06:28;;;;;;;6.20;0.70;;;;;;;;;;5090089;28;20048;-74
2022/12/24 04:09:03;;;;;;;2.83;0.85;;;;;;;;;;5089076;28;20048;-73
2022/12/24 04:11:33;;;;;;;4.68;0.85;;;;;;;;;;5089458;28;20047;-73
2022/12/24 04:14:03;;;;;;;3.95;1.17;;;;;;;;;;5090008;28;20139;-73
2022/12/24 04:16:35;;;;;;;1.65;0.63;;;;;;;;;;5070985;28;20056;-73
2022/12/24 04:19:06;;;;;;;3.58;0.60;;;;;;;;;;5089269;28;20059;-73
2022/12/24 04:21:36;;;;;;;5.95;0.95;;;;;;;;;;5089155;28;20043;-73
2022/12/24 04:24:06;;;;;;;1.35;0.80;;;;;;;;;;5089157;28;20410;-73
2022/12/24 04:26:36;;;;;;;2.70;0.90;;;;;;;;;;5088191;28;20060;-74
2022/12/24 04:29:07;;;;;;;3.05;0.80;;;;;;;;;;5089206;28;20058;-73
2022/12/24 04:31:38;;;;;;;4.43;0.93;;;;;;;;;;5088805;28;20066;-74
2022/12/24 04:34:09;;;;;;;5.25;0.90;;;;;;;;;;5089024;28;20032;-74
2022/12/24 04:36:39;;;;;;;2.40;1.27;;;;;;;;;;5089488;28;20410;-73
2022/12/24 04:39:10;;;;;;;7.38;1.00;;;;;;;;;;5089382;28;20044;-74
2022/12/24 04:41:40;;;;;;;3.95;1.33;;;;;;;;;;5089176;28;20051;-73
2022/12/24 04:44:10;;;;;;;4.30;0.88;;;;;;;;;;5088797;28;20047;-73
2022/12/24 04:46:41;;;;;;;9.68;1.25;;;;;;;;;;5088485;28;20047;-74
2022/12/24 04:49:12;;;;;;;4.32;1.05;;;;;;;;;;5088449;28;20070;-73
2022/12/24 04:51:43;;;;;;;4.72;1.17;;;;;;;;;;5087138;28;20048;-73
2022/12/24 04:54:13;;;;;;;1.77;1.00;;;;;;;;;;5088407;28;20055;-74
2022/12/24 04:56:43;;;;;;;4.18;0.90;;;;;;;;;;5088269;28;20048;-74
2022/12/24 04:59:13;;;;;;;2.70;0.75;;;;;;;;;;5088634;28;20070;-73
2022/12/24 05:01:44;;;;;;;4.88;1.13;;;;;;;;;;5087780;28;20063;-74
2022/12/24 05:04:15;;;;;;;2.45;0.82;;;;;;;;;;5088876;28;20071;-74
2022/12/24 05:06:46;;;;;;;3.72;0.85;;;;;;;;;;5088547;28;20059;-74
2022/12/24 05:09:16;;;;;;;2.53;0.73;;;;;;;;;;5070463;28;20048;-73
2022/12/24 05:11:46;;;;;;;4.07;0.90;;;;;;;;;;5088295;28;20044;-74
2022/12/24 05:14:17;;;;;;;2.53;0.65;;;;;;;;;;5088537;28;20048;-73
2022/12/24 05:16:48;;;;;;;4.63;0.77;;;;;;;;;;5089071;28;20047;-74
2022/12/24 05:19:18;;;;;;;7.18;1.38;;;;;;;;;;5088066;28;20040;-73
2022/12/24 05:26:20;;;;;;;1.48;0.90;;;;;;;;;;5088734;28;20418;-76
2022/12/24 05:27:27;;;;;;;2.95;0.90;;;;;;;;;;5088568;28;20051;-74
2022/12/24 05:29:58;;;;;;;1.98;0.70;;;;;;;;;;5088114;28;20044;-73
2022/12/24 05:32:28;;;;;;;3.97;0.88;;;;;;;;;;5087867;28;20495;-73
2022/12/24 05:34:58;;;;;;;1.20;0.73;;;;;;;;;;5087944;28;20047;-73
2022/12/24 05:37:28;;;;;;;1.38;0.80;;;;;;;;;;5087836;28;20048;-73
2022/12/24 05:39:59;;;;;;;4.22;1.50;;;;;;;;;;5069611;28;20410;-73
2022/12/24 05:42:29;;;;;;;4.32;1.10;;;;;;;;;;5087827;28;20044;-74
2022/12/24 05:45:00;;;;;;;3.00;0.90;;;;;;;;;;5087816;28;20081;-73
2022/12/24 05:47:31;;;;;;;8.90;1.30;;;;;;;;;;5088017;28;20054;-73
2022/12/24 05:50:11;;;;;;;2.28;1.00;;;;;;;;;;5088181;28;20402;-73
2022/12/24 05:52:43;;;;;;;4.25;1.10;;;;;;;;;;5087848;28;20052;-73
2022/12/24 05:55:13;;;;;;;2.63;0.82;;;;;;;;;;5087290;28;20075;-74
2022/12/24 05:57:43;;;;;;;3.25;1.23;;;;;;;;;;5087836;28;20040;-73
2022/12/24 06:00:14;;;;;;;2.63;0.98;;;;;;;;;;5086390;28;20051;-73
2022/12/24 06:02:44;;;;;;;2.05;1.10;;;;;;;;;;5069292;28;20048;-73
2022/12/24 06:05:14;;;;;;;6.00;1.42;;;;;;;;;;5105043;28;20048;-74
2022/12/24 06:07:44;;;;;;;3.42;1.20;;;;;;;;;;5107873;28;20046;-73
2022/12/24 06:10:15;;;;;;;1.30;0.80;;;;;;;;;;5107746;28;20056;-73
2022/12/24 06:12:45;;;;;;;2.78;0.90;;;;;;;;;;5107590;28;20524;-73
2022/12/24 06:15:17;;;;;;;2.53;1.00;;;;;;;;;;5107876;28;20043;-73
2022/12/24 06:17:52;;;;;;;3.45;1.00;;;;;;;;;;5107697;28;20070;-73
2022/12/24 06:20:22;;;;;;;2.75;0.95;;;;;;;;;;5107018;28;20047;-73
2022/12/24 06:22:52;;;;;;;5.88;1.27;;;;;;;;;;5107853;28;20062;-73
2022/12/24 06:25:24;;;;;;;3.83;1.08;;;;;;;;;;5107419;28;20391;-73
2022/12/24 06:27:54;;;;;;;3.90;1.10;;;;;;;;;;5088044;28;20059;-74
2022/12/24 06:30:24;;;;;;;2.65;1.20;;;;;;;;;;5107503;28;20047;-73
2022/12/24 06:32:54;;;;;;;1.88;0.85;;;;;;;;;;5107171;28;20043;-73
2022/12/24 06:35:24;;;;;;;3.28;0.95;;;;;;;;;;5107674;28;20054;-73
2022/12/24 06:37:54;;;;;;;2.03;0.93;;;;;;;;;;5088946;28;20144;-74
2022/12/24 06:40:27;;;;;;;1.23;1.00;;;;;;;;;;5107289;28;20055;-74
2022/12/24 06:42:58;;;;;;;3.38;0.93;;;;;;;;;;5107555;28;20043;-74
2022/12/24 06:45:28;;;;;;;2.50;0.98;;;;;;;;;;5106930;28;20564;-73
2022/12/24 06:48:00;;;;;;;3.13;1.02;;;;;;;;;;5107010;28;20039;-74
2022/12/24 06:50:30;;;;;;;3.70;0.85;;;;;;;;;;5107584;28;20039;-73
2022/12/24 06:53:00;;;;;;;3.42;1.20;;;;;;;;;;5106649;28;20039;-74
2022/12/24 06:55:32;;;;;;;5.60;1.58;;;;;;;;;;5106806;28;20047;-73
2022/12/24 06:58:03;;;;;;;1.52;0.77;;;;;;;;;;5106676;28;20059;-74
2022/12/24 07:00:33;;;;;;;5.50;1.40;;;;;;;;;;5107577;28;20044;-73
2022/12/24 07:03:03;;;;;;;5.75;1.25;;;;;;;;;;5106859;28;20043;-73
2022/12/24 07:05:34;;;;;;;3.47;1.35;;;;;;;;;;5106427;28;20058;-74
2022/12/24 07:08:05;;;;;;;3.58;1.17;;;;;;;;;;5088945;28;20052;-73
2022/12/24 07:10:35;;;;;;;2.95;1.02;;;;;;;;;;5106818;28;20052;-74
2022/12/24 07:13:05;;;;;;;1.52;0.90;;;;;;;;;;5110058;28;20047;-74
2022/12/24 07:15:35;;;;;;;2.40;1.60;;;;;;;;;;5093345;28;20048;-73
2022/12/24 07:18:05;;;;;;;6.65;1.50;;;;;;;;;;5110463;28;20054;-73
2022/12/24 07:20:37;;;;;;;2.42;1.27;;;;;;;;;;5111041;28;20044;-73
2022/12/24 07:23:07;;;;;;;2.47;0.95;;;;;;;;;;5093371;28;20497;-73
2022/12/24 07:25:42;;;;;;;5.93;1.40;;;;;;;;;;5092941;28;20063;-73
2022/12/24 07:28:12;;;;;;;4.63;1.33;;;;;;;;;;5111145;28;20039;-74
2022/12/24 07:30:42;;;;;;;2.65;1.23;;;;;;;;;;5111126;28;20047;-74
2022/12/24 07:33:12;;;;;;;2.95;1.00;;;;;;;;;;5110205;28;20052;-73
2022/12/24 07:35:42;;;;;;;3.47;1.33;;;;;;;;;;5110396;28;20413;-74
2022/12/24 07:38:12;;;;;;;1.92;1.10;;;;;;;;;;5092000;28;20066;-73
2022/12/24 07:40:42;;;;;;;4.15;1.67;;;;;;;;;;5110749;28;20048;-74
2022/12/24 07:43:13;;;;;;;2.00;0.85;;;;;;;;;;5092906;28;20520;-73
2022/12/24 07:45:43;;;;;;;3.08;1.08;;;;;;;;;;5110890;28;20040;-74
2022/12/24 07:48:13;;;;;;;7.18;1.42;;;;;;;;;;5092775;28;20052;-73
2022/12/24 07:50:43;;;;;;;2.83;1.35;;;;;;;;;;5110191;28;20044;-73
2022/12/24 07:53:13;;;;;;;10.75;1.23;;;;;;;;;;5091415;28;20062;-74
2022/12/24 07:55:44;;;;;;;8.35;1.20;;;;;;;;;;5110057;28;20122;-74
2022/12/24 07:58:15;;;;;;;6.30;1.17;;;;;;;;;;5109565;28;20044;-73
2022/12/24 08:00:46;;;;;;;9.55;0.90;;;;;;;;;;5109970;28;20047;-74
2022/12/24 08:03:19;;;;;;;5.13;1.38;;;;;;;;;;5110347;28;20052;-73
2022/12/24 08:05:51;;;;;;;4.57;1.02;;;;;;;;;;5110086;28;20047;-74
2022/12/24 08:08:23;;;;;;;2.92;0.90;;;;;;;;;;5110254;28;20046;-73
2022/12/24 08:10:54;;;;;;;3.30;0.98;;;;;;;;;;5110027;28;20035;-73
2022/12/24 08:13:23;;;;;;;2.25;0.90;;;;;;;;;;5110445;28;20054;-73
2022/12/24 08:15:54;;;;;;;3.78;1.20;;;;;;;;;;5108135;28;20538;-73
2022/12/24 08:18:24;;;;;;;4.60;0.98;;;;;;;;;;5091272;28;20056;-74
2022/12/24 08:20:56;;;;;;;4.25;1.52;;;;;;;;;;5092017;28;20043;-73
2022/12/24 08:23:26;;;;;;;3.58;1.35;;;;;;;;;;5108563;28;20055;-74
2022/12/24 08:25:57;;;;;;;2.78;1.15;;;;;;;;;;5091373;28;20051;-74
2022/12/24 08:28:27;;;;;;;4.40;1.10;;;;;;;;;;5109441;28;20054;-73
2022/12/24 08:30:58;;;;;;;2.20;0.90;;;;;;;;;;5110397;28;20063;-73
2022/12/24 08:33:28;;;;;;;6.38;1.30;;;;;;;;;;5109364;28;20040;-74
2022/12/24 08:36:00;;;;;;;5.57;1.20;;;;;;;;;;5108964;28;20502;-73
2022/12/24 08:38:31;;;;;;;4.50;1.20;;;;;;;;;;5109382;28;20043;-73
2022/12/24 08:41:02;;;;;;;3.20;1.25;;;;;;;;;;5109396;28;20504;-73
2022/12/24 08:43:32;;;;;;;4.22;1.05;;;;;;;;;;5109089;28;20042;-74
2022/12/24 08:46:06;;;;;;;4.22;0.98;;;;;;;;;;5109678;28;20048;-73
2022/12/24 08:48:36;;;;;;;4.07;1.25;;;;;;;;;;5091069;28;20051;-73
2022/12/24 08:51:10;;;;;;;3.97;1.38;;;;;;;;;;5109146;28;20046;-74
2022/12/24 08:53:41;;;;;;;3.92;1.10;;;;;;;;;;5108192;28;20047;-74
2022/12/24 08:56:11;;;;;;;2.70;1.00;;;;;;;;;;5109977;28;20036;-73
2022/12/24 08:58:43;;;;;;;6.38;1.48;;;;;;;;;;5109040;28;20031;-73
2022/12/24 09:01:18;;;;;;;6.07;1.10;;;;;;;;;;5109298;28;20043;-73
2022/12/24 09:03:49;;;;;;;6.57;1.52;;;;;;;;;;5109225;28;20051;-73
2022/12/24 09:06:19;;;;;;;4.18;1.50;;;;;;;;;;5108928;28;20052;-74
2022/12/24 09:08:51;;;;;;;2.40;1.10;;;;;;;;;;5108865;28;20062;-73
2022/12/24 09:11:22;;;;;;;4.30;0.95;;;;;;;;;;5108961;28;20070;-73
2022/12/24 09:13:52;;;;;;;4.40;1.23;;;;;;;;;;5109465;28;20382;-73
2022/12/24 09:16:24;;;;;;;2.88;1.48;;;;;;;;;;5108730;28;20409;-74
2022/12/24 09:18:57;;;;;;;9.55;1.30;;;;;;;;;;5108936;28;20518;-73
2022/12/24 09:21:29;;;;;;;2.60;1.33;;;;;;;;;;5091202;28;20040;-74
2022/12/24 09:24:00;;;;;;;7.40;1.23;;;;;;;;;;5108148;28;20051;-74
2022/12/24 09:26:31;;;;;;;7.63;0.90;;;;;;;;;;5090095;28;20052;-73
2022/12/24 09:29:02;;;;;;;3.70;1.20;;;;;;;;;;5108733;28;20421;-74
2022/12/24 09:31:34;;;;;;;4.55;1.02;;;;;;;;;;5108550;28;20806;-74
2022/12/24 09:34:05;;;;;;;2.17;1.13;;;;;;;;;;5107983;28;20043;-73
2022/12/24 09:36:36;;;;;;;4.18;1.02;;;;;;;;;;5088246;28;20047;-74
2022/12/24 09:39:09;;;;;;;3.50;0.82;;;;;;;;;;5108498;28;20050;-74
2022/12/24 09:42:10;;;;;;;5.47;1.38;;;;;;;;;;5107982;28;20372;-73
2022/12/24 09:44:43;;;;;;;5.28;1.27;;;;;;;;;;5108128;28;20052;-74
2022/12/24 09:47:39;;;;;;;6.63;1.20;;;;;;;;;;5107934;28;20054;-74
2022/12/24 09:50:28;;;;;;;2.78;1.05;;;;;;;;;;5107990;28;20052;-74
2022/12/24 09:53:04;;;;;;;3.03;1.30;;;;;;;;;;5107564;28;20043;-73
2022/12/24 09:55:44;;;;;;;2.25;1.40;;;;;;;;;;5108059;28;20043;-73
2022/12/24 09:58:38;;;;;;;8.20;1.40;;;;;;;;;;5089742;28;20047;-73
2022/12/24 10:01:18;;;;;;;1.42;0.82;;;;;;;;;;5107861;28;20051;-73
2022/12/24 10:03:49;;;;;;;4.60;1.20;;;;;;;;;;5107256;28;20125;-73
2022/12/24 10:06:24;;;;;;;3.45;1.10;;;;;;;;;;5108172;28;20063;-74
2022/12/24 10:09:06;;;;;;;3.20;1.05;;;;;;;;;;5107814;28;20051;-74
2022/12/24 10:11:55;;;;;;;6.75;1.25;;;;;;;;;;5107409;28;20393;-73
2022/12/24 10:14:38;;;;;;;4.35;1.08;;;;;;;;;;5108162;28;20044;-74
2022/12/24 10:17:27;;;;;;;3.17;1.00;;;;;;;;;;5107665;28;20040;-74
2022/12/24 10:20:15;;;;;;;6.43;1.20;;;;;;;;;;5107211;28;20054;-74
2022/12/24 10:23:22;;;;;;;4.60;1.42;;;;;;;;;;5107011;28;20035;-74
2022/12/24 10:26:04;;;;;;;4.10;1.45;;;;;;;;;;5107553;28;20048;-80
2022/12/24 10:28:51;;;;;;;3.38;0.98;;;;;;;;;;5107407;28;20043;-74
2022/12/24 10:31:35;;;;;;;4.18;1.17;;;;;;;;;;5107764;28;20497;-74
2022/12/24 10:34:15;;;;;;;5.05;1.08;;;;;;;;;;5107312;28;20044;-74
2022/12/24 10:36:46;;;;;;;1.15;0.73;;;;;;;;;;5107046;28;20062;-74
2022/12/24 10:39:21;;;;;;;8.52;1.00;;;;;;;;;;5106819;28;20067;-74
2022/12/24 10:41:54;;;;;;;;;;;;;;;;;;5107660;28;20062;-74
2022/12/24 10:44:29;;;;;;;4.68;1.17;;;;;;;;;;5107410;28;19924;-74
2022/12/24 10:47:00;;;;;;;5.78;1.00;;;;;;;;;;5106507;28;20050;-74
2022/12/24 10:49:43;;;;;;;3.80;0.80;;;;;;;;;;5107254;28;20039;-75
2022/12/24 10:52:29;;;;;;;4.75;0.80;;;;;;;;;;5107521;28;20048;-75
2022/12/24 10:55:23;;;;;;;9.88;1.00;;;;;;;;;;5107349;28;20039;-76
2022/12/24 10:58:05;;;;;;;3.20;1.00;;;;;;;;;;5106816;28;20047;-76
2022/12/24 11:00:37;;;;;;;1.85;0.93;;;;;;;;;;5106582;28;20044;-75
2022/12/24 11:03:20;;;;;;;5.28;1.20;;;;;;;;;;5106843;28;20058;-74
2022/12/24 11:06:14;;;;;;;1.83;1.05;;;;;;;;;;5106676;28;20055;-75
2022/12/24 11:08:48;;;;;;;1.80;0.57;;;;;;;;;;5106755;28;20138;-74
2022/12/24 11:11:20;;;;;;;2.33;0.68;;;;;;;;;;5106432;28;20040;-75
2022/12/24 11:13:51;;;;;;;1.05;0.60;;;;;;;;;;5107137;28;20051;-75
2022/12/24 11:16:34;;;;;;;3.33;1.05;;;;;;;;;;5087681;28;20047;-78
2022/12/24 11:19:17;;;;;;;2.95;0.70;;;;;;;;;;5106909;28;20059;-75
2022/12/24 11:21:48;;;;;;;5.65;1.25;;;;;;;;;;5106957;28;20094;-76
2022/12/24 11:24:30;;;;;;;1.27;0.63;;;;;;;;;;5105327;28;20051;-75
2022/12/24 11:27:28;;;;;;;4.90;1.13;;;;;;;;;;5106585;28;20047;-75
2022/12/24 11:30:47;;;;;;;3.65;0.82;;;;;;;;;;5106689;28;20036;-76
2022/12/24 11:33:19;;;;;;;2.95;0.75;;;;;;;;;;5094234;28;20058;-75
2022/12/24 11:35:55;;;;;;;3.03;0.90;;;;;;;;;;5092997;28;20051;-76
2022/12/24 11:38:27;;;;;;;1.23;0.70;;;;;;;;;;5086788;28;20040;-79
2022/12/24 11:41:07;;;;;;;4.07;1.15;;;;;;;;;;5086413;28;20574;-76
2022/12/24 11:43:44;;;;;;;4.53;1.00;;;;;;;;;;5066931;28;20060;-76
2022/12/24 11:46:21;;;;;;;1.80;0.77;;;;;;;;;;5086369;28;20052;-76
2022/12/24 11:49:12;;;;;;;2.35;0.75;;;;;;;;;;5068193;28;20052;-77
2022/12/24 11:52:11;;;;;;;1.95;0.80;;;;;;;;;;5085731;28;20503;-77
2022/12/24 11:55:15;;;;;;;1.05;0.63;;;;;;;;;;5085726;28;20048;-77
2022/12/24 11:58:24;;;;;;;1.83;0.73;;;;;;;;;;5067805;28;20787;-76
2022/12/24 12:01:19;;;;;;;4.95;1.00;;;;;;;;;;5089932;28;20040;-76
2022/12/24 12:04:05;;;;;;;1.80;0.98;;;;;;;;;;5090405;28;20048;-76
2022/12/24 12:06:45;;;;;;;3.63;0.70;;;;;;;;;;5089601;28;20060;-76
2022/12/24 12:09:24;;;;;;;3.67;0.60;;;;;;;;;;5089959;28;20047;-79
2022/12/24 12:12:20;;;;;;;2.15;0.88;;;;;;;;;;5089885;28;20426;-77
2022/12/24 12:15:03;;;;;;;0.70;0.70;;;;;;;;;;5089735;28;20384;-77
2022/12/24 12:17:45;;;;;;;2.58;0.43;;;;;;;;;;5089370;28;20047;-77
2022/12/24 12:20:21;;;;;;;5.78;0.75;;;;;;;;;;5071038;28;20495;-77
2022/12/24 12:23:01;;;;;;;1.00;0.55;;;;;;;;;;5089191;28;20058;-77
2022/12/24 12:25:43;;;;;;;1.95;0.90;;;;;;;;;;5089428;28;20048;-76
2022/12/24 12:28:42;;;;;;;3.53;0.90;;;;;;;;;;5089548;28;20047;-77
2022/12/24 12:31:18;;;;;;;0.80;0.50;;;;;;;;;;5065466;28;20044;-77
2022/12/24 12:33:55;;;;;;;1.70;0.90;;;;;;;;;;5071659;28;20403;-76
2022/12/24 12:36:33;;;;;;;1.58;0.63;;;;;;;;;;5088691;28;20047;-76
2022/12/24 12:39:03;;;;;;;2.72;0.70;;;;;;;;;;5070528;28;20078;-76
2022/12/24 12:41:39;;;;;;;0.75;0.50;;;;;;;;;;5088794;28;20743;-77
2022/12/24 12:44:44;;;;;;;1.02;0.40;;;;;;;;;;5089322;28;20044;-79
2022/12/24 12:47:45;;;;;;;1.88;0.63;;;;;;;;;;5070469;28;20865;-77
2022/12/24 12:50:36;;;;;;;1.25;0.60;;;;;;;;;;5089104;28;20407;-76
2022/12/24 12:53:56;;;;;;;2.80;0.40;;;;;;;;;;5089289;28;20052;-77
2022/12/24 12:56:30;;;;;;;1.77;0.50;;;;;;;;;;5076755;28;20516;-77
2022/12/24 12:59:09;;;;;;;3.55;0.77;;;;;;;;;;5088621;28;20521;-78
2022/12/24 13:02:00;;;;;;;2.72;1.10;;;;;;;;;;5088511;28;20553;-78
2022/12/24 13:04:46;;;;;;;3.00;0.70;;;;;;;;;;5070246;28;20138;-77
2022/12/24 13:08:10;;;;;;;1.98;0.52;;;;;;;;;;5088799;28;20059;-78
2022/12/24 13:11:16;;;;;;;2.40;0.77;;;;;;;;;;5065565;28;20056;-76
2022/12/24 13:14:08;;;;;;;2.40;0.60;;;;;;;;;;5087868;28;20048;-77
2022/12/24 13:17:10;;;;;;;1.05;0.70;;;;;;;;;;5088950;28;20051;-78
2022/12/24 13:19:46;;;;;;;1.67;1.30;;;;;;;;;;5088670;28;20048;-78
2022/12/24 13:22:20;;;;;;;0.70;0.50;;;;;;;;;;5088821;28;20087;-77
2022/12/24 13:24:53;;;;;;;1.30;0.60;;;;;;;;;;5088350;28;20154;-79
2022/12/24 13:27:27;;;;;;;2.10;0.70;;;;;;;;;;5087739;28;20048;-77
2022/12/24 13:30:04;;;;;;;1.33;0.52;;;;;;;;;;5088483;28;20044;-78
2022/12/24 13:32:51;;;;;;;2.30;0.70;;;;;;;;;;5088024;28;20044;-76
2022/12/24 13:35:21;;;;;;;1.48;0.50;;;;;;;;;;5087880;28;20051;-77
2022/12/24 13:37:51;;;;;;;3.15;0.63;;;;;;;;;;5088001;28;20036;-77
2022/12/24 13:40:23;;;;;;;3.03;0.70;;;;;;;;;;5092750;28;20412;-77
2022/12/24 13:43:00;;;;;;;3.30;0.60;;;;;;;;;;5108213;28;20036;-77
2022/12/24 13:45:31;;;;;;;1.02;0.60;;;;;;;;;;5088826;28;20055;-76
2022/12/24 13:48:07;;;;;;;2.05;0.60;;;;;;;;;;5107876;28;20055;-77
2022/12/24 13:51:19;;;;;;;2.35;0.80;;;;;;;;;;5107703;28;20047;-76
2022/12/24 13:53:57;;;;;;;;;;;;;;;;;;5070546;28;20505;-77
2022/12/24 13:56:31;;;;;;;1.42;0.63;;;;;;;;;;5108058;28;19923;-76
2022/12/24 13:59:19;;;;;;;1.60;0.60;;;;;;;;;;5108187;28;20050;-76
2022/12/24 14:01:49;;;;;;;2.35;0.60;;;;;;;;;;5108123;28;20508;-76
2022/12/24 14:04:28;;;;;;;2.20;0.60;;;;;;;;;;5107801;28;20048;-77
2022/12/24 14:07:03;;;;;;;1.40;0.52;;;;;;;;;;5107436;28;20044;-77
2022/12/24 14:09:34;;;;;;;5.53;1.00;;;;;;;;;;5108008;28;20047;-77
2022/12/24 14:12:05;;;;;;;2.20;0.52;;;;;;;;;;5107467;28;20048;-77
2022/12/24 14:14:38;;;;;;;1.35;0.55;;;;;;;;;;5089780;28;20051;-76
2022/12/24 14:17:29;;;;;;;1.50;0.60;;;;;;;;;;5107883;28;20051;-77
2022/12/24 14:20:02;;;;;;;1.58;0.45;;;;;;;;;;5107421;28;20051;-76
2022/12/24 14:22:37;;;;;;;1.65;0.70;;;;;;;;;;5107242;28;20052;-75
2022/12/24 14:25:24;;;;;;;1.35;0.65;;;;;;;;;;5107564;28;20047;-74
2022/12/24 14:28:06;;;;;;;1.02;0.50;;;;;;;;;;5107414;28;20044;-75
2022/12/24 14:30:37;;;;;;;0.70;0.52;;;;;;;;;;5106669;28;20051;-76
2022/12/24 14:33:34;;;;;;;2.40;0.63;;;;;;;;;;5088599;28;20071;-76
2022/12/24 14:36:05;;;;;;;2.00;0.60;;;;;;;;;;5107178;28;20059;-77
2022/12/24 14:38:36;;;;;;;8.32;0.60;;;;;;;;;;5088226;28;20051;-77
2022/12/24 14:41:16;;;;;;;3.50;0.60;;;;;;;;;;5107460;28;20495;-79
2022/12/24 14:43:51;;;;;;;3.22;0.70;;;;;;;;;;5107672;28;20552;-78
2022/12/24 14:46:34;;;;;;;3.20;0.70;;;;;;;;;;5106810;28;20067;-75
2022/12/24 14:49:23;;;;;;;1.45;0.70;;;;;;;;;;5107171;28;20051;-75
2022/12/24 14:52:03;;;;;;;2.50;0.80;;;;;;;;;;5107787;28;20055;-77
2022/12/24 14:54:43;;;;;;;1.00;0.90;;;;;;;;;;5107103;28;20432;-76
2022/12/24 14:57:22;;;;;;;1.25;0.50;;;;;;;;;;5106569;28;20047;-77
2022/12/24 14:59:57;;;;;;;1.67;0.60;;;;;;;;;;5107295;28;20048;-78
2022/12/24 15:02:48;;;;;;;1.83;0.50;;;;;;;;;;5106807;28;20058;-77
2022/12/24 15:05:27;;;;;;;1.30;0.90;;;;;;;;;;5107351;28;20056;-76
2022/12/24 15:08:00;;;;;;;1.75;0.80;;;;;;;;;;5106720;28;20062;-76
2022/12/24 15:10:37;;;;;;;1.30;0.57;;;;;;;;;;5106949;28;21120;-78
2022/12/24 15:13:22;;;;;;;5.07;0.73;;;;;;;;;;5107170;28;20412;-78
2022/12/24 15:15:54;;;;;;;4.07;0.88;;;;;;;;;;5106250;28;20044;-75
2022/12/24 15:18:31;;;;;;;2.85;0.70;;;;;;;;;;5105431;28;20056;-78
2022/12/24 15:21:04;;;;;;;1.27;0.47;;;;;;;;;;5106693;28;20047;-76
2022/12/24 15:23:37;;;;;;;1.58;0.63;;;;;;;;;;5106417;28;20044;-77
2022/12/24 15:26:14;;;;;;;3.15;0.82;;;;;;;;;;5107147;28;20047;-77
2022/12/24 15:28:45;;;;;;;1.75;0.57;;;;;;;;;;5106196;28;20047;-76
2022/12/24 15:31:21;;;;;;;0.95;0.45;;;;;;;;;;5106484;28;20486;-76
2022/12/24 15:33:55;;;;;;;0.60;0.50;;;;;;;;;;5109290;28;20409;-77
2022/12/24 15:36:34;;;;;;;1.70;0.70;;;;;;;;;;5110840;28;20050;-76
2022/12/24 15:39:16;;;;;;;1.35;0.50;;;;;;;;;;5111737;28;20405;-77
2022/12/24 15:44:42;;;;;;;2.47;1.17;;;;;;;;;;5103901;28;20075;-77
2022/12/24 15:47:20;;;;;;;5.72;1.02;;;;;;;;;;5100057;28;20486;-76
2022/12/24 15:49:51;;;;;;;7.32;1.23;;;;;;;;;;5091003;28;20513;-75